Time;durP1;ratioP1;P1;durP2;ratioP2;P2;SDS_P1;SDS_P2;PMS_P1;PMS_P2;Temp;Humidity;BMP_temperature;BMP_pressure;BME280_temperature;BME280_humidity;BME280_pressure;Samples;Min_cycle;Max_cycle;Signal;HPM_P1;HPM_P2
2022/06/04 00:00:28;;;;;;;13.77;12.30;;;;;15.20;94159.00;;;;7393031;19;20178;-78
2022/06/04 00:03:05;;;;;;;13.77;11.25;;;;;15.00;94178.00;;;;7392398;19;20539;-77
2022/06/04 00:05:37;;;;;;;10.75;9.75;;;;;14.80;94179.00;;;;7391782;19;20628;-78
2022/06/04 00:08:12;;;;;;;13.27;11.88;;;;;14.90;94181.00;;;;7392935;19;20137;-77
2022/06/04 00:16:28;;;;;;;13.95;12.25;;;;;14.80;94193.00;;;;7393740;19;20129;-76
2022/06/04 00:19:05;;;;;;;15.32;12.95;;;;;14.90;94197.00;;;;7391086;19;20579;-77
2022/06/04 00:21:32;;;;;;;16.80;13.90;;;;;14.90;94201.00;;;;7390700;19;20133;-77
2022/06/04 00:24:00;;;;;;;16.63;13.07;;;;;14.80;94188.00;;;;7390779;19;20578;-76
2022/06/04 00:26:36;;;;;;;16.48;14.02;;;;;14.90;94187.00;;;;7392375;19;20154;-77
2022/06/04 00:29:05;;;;;;;16.98;14.20;;;;;15.00;94197.00;;;;7390936;19;20161;-78
2022/06/04 00:31:32;;;;;;;18.00;14.63;;;;;14.80;94191.00;;;;7392631;19;20259;-77
2022/06/04 00:34:21;;;;;;;17.98;15.25;;;;;14.60;94187.00;;;;7390796;19;20211;-77
2022/06/04 00:36:56;;;;;;;16.52;14.80;;;;;14.50;94182.00;;;;7391037;19;20628;-79
2022/06/04 00:39:30;;;;;;;17.10;15.32;;;;;14.50;94177.00;;;;7393304;19;20480;-75
2022/06/04 00:42:11;;;;;;;19.35;15.23;;;;;14.70;94168.00;;;;7392216;19;20129;-79
2022/06/04 00:45:14;;;;;;;15.32;13.57;;;;;14.70;94169.00;;;;7390324;19;20140;-76
2022/06/04 00:47:41;;;;;;;17.73;15.82;;;;;14.80;94178.00;;;;7391050;19;20583;-76
2022/06/04 00:50:18;;;;;;;21.73;14.77;;;;;14.70;94170.00;;;;7388973;19;20151;-77
2022/06/04 00:52:49;;;;;;;17.63;14.95;;;;;14.70;94169.00;;;;7393248;19;20117;-76
2022/06/04 00:55:23;;;;;;;21.52;14.80;;;;;14.70;94156.00;;;;7384370;19;20200;-76
2022/06/04 00:58:00;;;;;;;17.42;14.85;;;;;14.80;94155.00;;;;7390693;19;20172;-76
2022/06/04 01:00:44;;;;;;;18.88;15.63;;;;;14.80;94163.00;;;;7387375;19;20129;-76
2022/06/04 01:03:37;;;;;;;17.48;15.35;;;;;14.70;94165.00;;;;7388923;19;20125;-76
2022/06/04 01:06:46;;;;;;;21.80;16.70;;;;;14.80;94164.00;;;;7389991;19;20133;-77
2022/06/04 01:09:32;;;;;;;17.88;16.08;;;;;14.90;94157.00;;;;7388435;19;21025;-76
2022/06/04 01:12:51;;;;;;;20.23;17.10;;;;;14.80;94157.00;;;;7391444;19;20170;-76
2022/06/04 01:15:39;;;;;;;19.88;17.65;;;;;14.80;94154.00;;;;7388588;19;20180;-76
2022/06/04 01:18:28;;;;;;;19.98;16.88;;;;;14.70;94156.00;;;;7390732;19;20129;-77
2022/06/04 01:20:59;;;;;;;18.60;16.58;;;;;14.70;94162.00;;;;7390499;19;20164;-76
2022/06/04 01:23:51;;;;;;;17.02;14.88;;;;;14.40;94165.00;;;;7391695;19;20608;-75
2022/06/04 01:26:28;;;;;;;20.77;14.63;;;;;14.20;94188.00;;;;7390524;19;20208;-76
2022/06/04 01:29:13;;;;;;;17.52;14.25;;;;;14.50;94186.00;;;;7389970;19;20128;-75
2022/06/04 01:31:48;;;;;;;20.52;14.48;;;;;14.70;94187.00;;;;7387145;19;20129;-76
2022/06/04 01:34:52;;;;;;;16.77;15.00;;;;;14.60;94176.00;;;;7389717;19;20202;-76
2022/06/04 01:37:27;;;;;;;22.83;18.55;;;;;14.50;94170.00;;;;7394762;19;20161;-76
2022/06/04 01:42:57;;;;;;;21.48;17.95;;;;;14.80;94169.00;;;;7397081;19;20201;-78
2022/06/04 01:45:32;;;;;;;21.48;18.27;;;;;14.70;94181.00;;;;7396159;19;20144;-77
2022/06/04 01:48:02;;;;;;;28.83;20.00;;;;;14.70;94173.00;;;;7397094;19;20697;-77
2022/06/04 01:50:47;;;;;;;24.90;19.52;;;;;14.50;94186.00;;;;7394796;19;20144;-76
2022/06/04 01:53:27;;;;;;;19.35;16.52;;;;;14.30;94187.00;;;;7396332;19;20648;-76
2022/06/04 01:55:59;;;;;;;18.25;14.95;;;;;14.20;94184.00;;;;7394798;19;20152;-76
2022/06/04 01:58:43;;;;;;;21.42;16.45;;;;;14.30;94187.00;;;;7395893;19;20170;-76
2022/06/04 02:01:16;;;;;;;29.85;19.17;;;;;14.30;94184.00;;;;7395913;19;20140;-75
2022/06/04 02:03:58;;;;;;;24.00;18.45;;;;;14.30;94192.00;;;;7397848;19;20132;-75
2022/06/04 02:06:37;;;;;;;23.27;18.08;;;;;14.30;94187.00;;;;7394548;19;20145;-75
2022/06/04 02:09:17;;;;;;;21.40;17.80;;;;;14.20;94189.00;;;;7399559;19;20225;-76
2022/06/04 02:11:53;;;;;;;20.67;18.48;;;;;14.10;94183.00;;;;7392711;19;20157;-75
2022/06/04 02:14:27;;;;;;;22.23;18.63;;;;;14.00;94177.00;;;;7396161;19;20133;-76
2022/06/04 02:17:03;;;;;;;30.42;20.42;;;;;14.00;94168.00;;;;7395769;19;20583;-76
2022/06/04 02:19:37;;;;;;;24.17;20.17;;;;;14.10;94167.00;;;;7395894;19;20211;-75
2022/06/04 02:22:05;;;;;;;27.55;20.92;;;;;14.10;94169.00;;;;7394987;19;20160;-75
2022/06/04 02:24:32;;;;;;;24.67;21.35;;;;;14.00;94165.00;;;;7396083;19;20599;-76
2022/06/04 02:27:06;;;;;;;26.52;21.58;;;;;14.10;94167.00;;;;7397449;19;20574;-75
2022/06/04 02:29:36;;;;;;;32.13;23.13;;;;;14.20;94166.00;;;;7395083;19;20606;-75
2022/06/04 02:32:24;;;;;;;25.77;20.85;;;;;14.20;94167.00;;;;7395069;19;20141;-75
2022/06/04 02:35:21;;;;;;;24.60;21.85;;;;;14.20;94163.00;;;;7393869;19;20149;-76
2022/06/04 02:38:18;;;;;;;29.85;22.60;;;;;14.20;94158.00;;;;7395190;19;20156;-76
2022/06/04 02:41:05;;;;;;;24.23;19.80;;;;;14.30;94154.00;;;;7394899;19;20595;-75
2022/06/04 02:43:48;;;;;;;20.40;18.23;;;;;14.20;94140.00;;;;7396762;19;20204;-75
2022/06/04 02:46:41;;;;;;;20.38;17.75;;;;;14.30;94143.00;;;;7395150;19;20473;-75
2022/06/04 02:49:24;;;;;;;26.88;19.55;;;;;14.30;94142.00;;;;7396964;19;20158;-76
2022/06/04 02:51:59;;;;;;;26.38;21.70;;;;;14.50;94146.00;;;;7393183;19;20135;-76
2022/06/04 02:54:33;;;;;;;22.92;18.98;;;;;14.70;94133.00;;;;7395291;19;20597;-75
2022/06/04 02:57:11;;;;;;;22.95;19.45;;;;;14.80;94138.00;;;;7395184;19;20145;-76
2022/06/04 02:59:41;;;;;;;22.15;19.20;;;;;15.00;94139.00;;;;7394272;19;20129;-75
2022/06/04 03:02:17;;;;;;;22.70;18.65;;;;;15.10;94133.00;;;;7396249;19;20125;-75
2022/06/04 03:04:51;;;;;;;22.02;17.13;;;;;14.80;94128.00;;;;7393797;19;20135;-75
2022/06/04 03:07:25;;;;;;;19.52;14.65;;;;;14.70;94125.00;;;;7394330;19;20587;-75
2022/06/04 03:10:01;;;;;;;15.77;14.00;;;;;14.50;94132.00;;;;7393659;19;20144;-76
2022/06/04 03:12:35;;;;;;;16.13;13.23;;;;;14.40;94127.00;;;;7394493;19;20131;-76
2022/06/04 03:15:03;;;;;;;17.10;13.95;;;;;14.50;94127.00;;;;7394059;19;20141;-76
2022/06/04 03:17:31;;;;;;;15.40;13.32;;;;;14.60;94129.00;;;;7393798;19;20152;-76
2022/06/04 03:20:07;;;;;;;23.48;13.82;;;;;14.60;94132.00;;;;7392991;19;20145;-75
2022/06/04 03:22:35;;;;;;;13.70;12.00;;;;;14.70;94131.00;;;;7389830;19;20664;-76
2022/06/04 03:25:06;;;;;;;13.50;12.15;;;;;14.70;94139.00;;;;7394110;19;20594;-75
2022/06/04 03:27:40;;;;;;;12.75;11.45;;;;;14.70;94145.00;;;;7392311;19;20167;-76
2022/06/04 03:30:08;;;;;;;17.60;11.85;;;;;14.70;94154.00;;;;7392908;19;20674;-76
2022/06/04 03:32:37;;;;;;;14.25;12.75;;;;;14.80;94157.00;;;;7393811;19;20156;-76
2022/06/04 03:35:24;;;;;;;14.88;13.15;;;;;14.80;94155.00;;;;7389992;19;20171;-76
2022/06/04 03:37:58;;;;;;;14.50;13.10;;;;;15.00;94158.00;;;;7391892;19;20136;-76
2022/06/04 03:40:33;;;;;;;12.93;11.00;;;;;15.00;94153.00;;;;7390302;19;20145;-74
2022/06/04 03:43:01;;;;;;;12.25;11.05;;;;;15.00;94162.00;;;;7391036;19;20140;-77
2022/06/04 03:45:30;;;;;;;12.13;10.90;;;;;15.10;94156.00;;;;7391383;19;20166;-75
2022/06/04 03:48:05;;;;;;;12.00;9.65;;;;;15.20;94162.00;;;;7391452;19;20150;-76
2022/06/04 03:50:32;;;;;;;12.65;10.02;;;;;15.10;94156.00;;;;7389919;19;20166;-76
2022/06/04 03:53:00;;;;;;;11.27;9.25;;;;;15.10;94156.00;;;;7390661;19;20144;-75
2022/06/04 03:55:34;;;;;;;13.82;11.48;;;;;14.90;94171.00;;;;7387774;19;20141;-76
2022/06/04 03:58:02;;;;;;;12.10;10.25;;;;;14.80;94144.00;;;;7388571;19;20125;-76
2022/06/04 04:00:39;;;;;;;13.60;10.73;;;;;15.00;94155.00;;;;7390699;19;20121;-77
2022/06/04 04:03:15;;;;;;;14.25;10.52;;;;;15.20;94149.00;;;;7389651;19;20139;-74
2022/06/04 04:05:48;;;;;;;12.23;10.77;;;;;15.10;94147.00;;;;7390136;19;20129;-76
2022/06/04 04:08:25;;;;;;;11.40;10.18;;;;;15.10;94139.00;;;;7389746;19;20825;-77
2022/06/04 04:10:53;;;;;;;10.48;9.32;;;;;15.10;94156.00;;;;7388654;19;20581;-75
2022/06/04 04:13:23;;;;;;;13.43;8.93;;;;;15.20;94158.00;;;;7390544;19;20136;-76
2022/06/04 04:15:57;;;;;;;10.07;9.02;;;;;15.40;94159.00;;;;7388889;19;20161;-76
2022/06/04 04:18:24;;;;;;;14.75;10.50;;;;;15.70;94162.00;;;;7389319;19;20140;-76
2022/06/04 04:20:52;;;;;;;11.57;10.43;;;;;15.90;94163.00;;;;7387433;19;20172;-76
2022/06/04 04:23:26;;;;;;;14.40;12.73;;;;;16.10;94156.00;;;;7389663;19;20125;-76
2022/06/04 04:25:53;;;;;;;14.45;12.07;;;;;16.40;94158.00;;;;7388720;19;20133;-76
2022/06/04 04:28:21;;;;;;;11.50;10.30;;;;;16.60;94155.00;;;;7389855;19;20600;-77
2022/06/04 04:30:55;;;;;;;10.32;8.52;;;;;16.80;94150.00;;;;7388991;19;20173;-76
2022/06/04 04:33:23;;;;;;;9.00;7.93;;;;;16.80;94149.00;;;;7391241;19;20237;-77
2022/06/04 04:35:57;;;;;;;8.27;7.47;;;;;16.80;94153.00;;;;6891758;19;9759686;-76
2022/06/04 04:38:38;;;;;;;8.82;7.80;;;;;17.00;94155.00;;;;7391569;19;21219;-77
2022/06/04 04:41:10;;;;;;;12.63;7.80;;;;;17.00;94159.00;;;;7391092;19;20632;-76
2022/06/04 04:43:44;;;;;;;8.80;6.50;;;;;17.00;94166.00;;;;7392086;19;20592;-74
2022/06/04 04:46:13;;;;;;;8.00;6.78;;;;;17.00;94166.00;;;;7391074;19;20153;-77
2022/06/04 04:48:44;;;;;;;10.27;7.00;;;;;17.20;94189.00;;;;7391528;19;20129;-78
2022/06/04 04:51:25;;;;;;;8.52;6.30;;;;;17.40;94188.00;;;;7389935;19;20624;-77
2022/06/04 04:53:54;;;;;;;7.45;6.75;;;;;17.60;94193.00;;;;7389554;19;20599;-75
2022/06/04 04:56:28;;;;;;;7.28;6.65;;;;;18.00;94196.00;;;;7390976;19;20144;-78
2022/06/04 04:58:56;;;;;;;7.43;6.32;;;;;18.20;94198.00;;;;7391407;19;20592;-77
2022/06/04 05:01:26;;;;;;;7.38;6.35;;;;;18.30;94201.00;;;;7391039;19;20199;-75
2022/06/04 05:04:00;;;;;;;6.72;5.55;;;;;18.30;94206.00;;;;7389645;19;20136;-77
2022/06/04 05:06:31;;;;;;;6.13;5.50;;;;;18.10;94205.00;;;;7390070;19;20202;-76
2022/06/04 05:09:00;;;;;;;7.55;5.10;;;;;18.10;94194.00;;;;7391486;19;20128;-76
2022/06/04 05:11:34;;;;;;;7.60;5.60;;;;;18.10;94200.00;;;;7396475;19;20128;-76
2022/06/04 05:14:02;;;;;;;6.90;5.63;;;;;18.00;94214.00;;;;7399283;19;20584;-75
2022/06/04 05:16:35;;;;;;;6.97;5.95;;;;;18.00;94214.00;;;;7398477;19;20133;-75
2022/06/04 05:19:09;;;;;;;8.05;5.78;;;;;17.80;94214.00;;;;7397604;19;20133;-76
2022/06/04 05:21:45;;;;;;;5.38;4.88;;;;;17.80;94219.00;;;;7394851;19;20168;-76
2022/06/04 05:24:24;;;;;;;5.70;4.95;;;;;17.80;94212.00;;;;7397866;19;20149;-75
2022/06/04 05:26:53;;;;;;;6.07;5.47;;;;;17.90;94214.00;;;;7398020;19;20148;-76
2022/06/04 05:29:28;;;;;;;6.45;5.50;;;;;17.90;94219.00;;;;7392177;19;20158;-74
2022/06/04 05:31:57;;;;;;;7.68;5.25;;;;;17.70;94227.00;;;;7395801;19;20129;-75
2022/06/04 05:34:25;;;;;;;11.40;5.45;;;;;17.70;94240.00;;;;7399106;19;20570;-77
2022/06/04 05:37:07;;;;;;;5.45;4.93;;;;;17.40;94254.00;;;;7401293;19;20167;-75
2022/06/04 05:39:36;;;;;;;7.55;5.22;;;;;17.30;94261.00;;;;7399674;19;20144;-75
2022/06/04 05:42:10;;;;;;;8.75;5.15;;;;;17.10;94284.00;;;;7400906;19;20132;-75
2022/06/04 05:44:38;;;;;;;10.55;4.95;;;;;17.00;94292.00;;;;7401926;19;20140;-75
2022/06/04 05:47:07;;;;;;;6.05;5.10;;;;;16.60;94306.00;;;;7400319;19;20139;-74
2022/06/04 05:49:42;;;;;;;9.90;6.47;;;;;16.20;94328.00;;;;7401767;19;20635;-75
2022/06/04 05:52:09;;;;;;;11.75;6.53;;;;;16.10;94326.00;;;;7401441;19;20159;-76
2022/06/04 05:54:37;;;;;;;8.90;6.53;;;;;15.80;94328.00;;;;7400529;19;20137;-79
2022/06/04 05:57:12;;;;;;;11.57;6.60;;;;;15.70;94312.00;;;;7400897;19;20140;-77
2022/06/04 05:59:40;;;;;;;7.50;6.00;;;;;15.60;94323.00;;;;7401720;19;20136;-75
2022/06/04 06:02:09;;;;;;;9.35;6.72;;;;;15.50;94326.00;;;;7398510;19;20714;-75
2022/06/04 06:04:44;;;;;;;10.30;5.70;;;;;15.40;94330.00;;;;7401094;19;20133;-77
2022/06/04 06:07:12;;;;;;;7.50;6.70;;;;;15.40;94329.00;;;;7399043;19;20533;-75
2022/06/04 06:09:40;;;;;;;7.50;6.80;;;;;15.40;94324.00;;;;7398967;19;20510;-77
2022/06/04 06:12:14;;;;;;;10.98;6.80;;;;;15.40;94319.00;;;;7399884;19;20136;-77
2022/06/04 06:14:43;;;;;;;13.98;7.10;;;;;15.50;94313.00;;;;7401280;19;20145;-77
2022/06/04 06:17:11;;;;;;;7.45;6.65;;;;;15.40;94303.00;;;;7401015;19;20140;-78
2022/06/04 06:19:46;;;;;;;7.80;7.10;;;;;15.40;94286.00;;;;7397602;19;20171;-77
2022/06/04 06:22:14;;;;;;;9.18;7.40;;;;;15.40;94279.00;;;;7397367;19;20622;-76
2022/06/04 06:24:42;;;;;;;14.20;6.95;;;;;15.50;94273.00;;;;7401513;19;20140;-76
2022/06/04 06:27:16;;;;;;;12.57;7.72;;;;;15.40;94271.00;;;;7397104;19;20160;-76
2022/06/04 06:29:44;;;;;;;13.35;7.97;;;;;15.50;94266.00;;;;7399387;19;20135;-76
2022/06/04 06:32:12;;;;;;;10.05;7.93;;;;;15.60;94262.00;;;;7398572;19;20549;-76
2022/06/04 06:34:54;;;;;;;11.70;7.50;;;;;15.70;94253.00;;;;7400488;19;20533;-77
2022/06/04 06:37:28;;;;;;;9.77;7.47;;;;;15.70;94246.00;;;;7400336;19;20572;-76
2022/06/04 06:40:07;;;;;;;7.07;6.38;;;;;15.60;94243.00;;;;7402108;19;20125;-76
2022/06/04 06:42:35;;;;;;;7.45;6.70;;;;;15.80;94252.00;;;;7401497;19;20145;-75
2022/06/04 06:45:05;;;;;;;8.05;6.07;;;;;15.70;94267.00;;;;7404085;19;20133;-77
2022/06/04 06:47:40;;;;;;;6.00;5.43;;;;;15.90;94255.00;;;;7399640;19;20136;-77
2022/06/04 06:50:08;;;;;;;6.40;5.80;;;;;16.00;94257.00;;;;7400768;19;20525;-77
2022/06/04 06:52:36;;;;;;;7.60;5.88;;;;;16.30;94251.00;;;;7399215;19;20195;-80
2022/06/04 06:55:11;;;;;;;5.88;5.28;;;;;16.60;94254.00;;;;7396973;19;20216;-79
2022/06/04 06:57:39;;;;;;;5.45;4.40;;;;;17.00;94261.00;;;;7401422;19;20159;-80
2022/06/04 07:00:07;;;;;;;5.63;3.72;;;;;17.30;94269.00;;;;7404296;19;20164;-80
2022/06/04 07:02:42;;;;;;;5.32;3.65;;;;;17.70;94277.00;;;;7403264;19;20173;-79
2022/06/04 07:05:10;;;;;;;3.80;3.50;;;;;17.90;94287.00;;;;7402444;19;20152;-80
2022/06/04 07:07:41;;;;;;;3.95;3.50;;;;;18.10;94279.00;;;;7401785;19;20141;-79
2022/06/04 07:10:15;;;;;;;4.07;3.70;;;;;18.20;94264.00;;;;7402492;19;20159;-80
2022/06/04 07:12:44;;;;;;;4.25;3.85;;;;;18.20;94258.00;;;;7399573;19;20498;-80
2022/06/04 07:15:12;;;;;;;3.63;3.08;;;;;18.10;94256.00;;;;7398510;19;20742;-79
2022/06/04 07:17:46;;;;;;;4.43;3.30;;;;;17.90;94244.00;;;;7398882;19;20147;-79
2022/06/04 07:20:13;;;;;;;3.72;3.33;;;;;17.90;94249.00;;;;7402050;19;20484;-79
2022/06/04 07:22:42;;;;;;;3.53;2.95;;;;;17.70;94259.00;;;;7396394;19;20132;-79
2022/06/04 07:25:16;;;;;;;5.32;3.13;;;;;17.70;94258.00;;;;7397644;19;20140;-79
2022/06/04 07:27:44;;;;;;;8.90;3.45;;;;;17.80;94248.00;;;;7399559;19;20139;-78
2022/06/04 07:30:12;;;;;;;3.80;3.50;;;;;18.00;94246.00;;;;7400523;19;20125;-80
2022/06/04 07:32:54;;;;;;;3.83;3.47;;;;;18.20;94238.00;;;;7398020;19;20512;-79
2022/06/04 07:35:28;;;;;;;4.10;3.47;;;;;18.60;94245.00;;;;7398853;19;20168;-78
2022/06/04 07:38:16;;;;;;;3.67;3.28;;;;;18.70;94262.00;;;;7399214;19;20149;-79
2022/06/04 07:40:45;;;;;;;4.25;3.35;;;;;18.90;94257.00;;;;7400424;19;20611;-78
2022/06/04 07:43:19;;;;;;;5.60;3.88;;;;;18.90;94261.00;;;;7397978;19;20159;-78
2022/06/04 07:45:50;;;;;;;5.68;4.03;;;;;19.30;94259.00;;;;7398710;19;20147;-79
2022/06/04 07:48:18;;;;;;;4.32;3.95;;;;;19.60;94255.00;;;;7399840;19;20157;-78
2022/06/04 07:50:55;;;;;;;6.22;4.55;;;;;19.70;94247.00;;;;7401361;19;20143;-81
2022/06/04 07:53:23;;;;;;;4.43;4.03;;;;;19.70;94242.00;;;;7397996;19;20145;-79
2022/06/04 07:55:51;;;;;;;5.20;4.53;;;;;20.40;94236.00;;;;7396278;19;20619;-80
2022/06/04 07:58:25;;;;;;;7.22;4.38;;;;;21.00;94236.00;;;;7400151;19;20215;-80
2022/06/04 08:00:58;;;;;;;5.32;4.82;;;;;20.80;94239.00;;;;7399898;19;20488;-80
2022/06/04 08:03:35;;;;;;;6.43;4.90;;;;;20.90;94245.00;;;;7398551;19;20156;-80
2022/06/04 08:06:05;;;;;;;5.30;4.65;;;;;20.40;94254.00;;;;7396950;19;20137;-79
2022/06/04 08:08:40;;;;;;;5.43;4.82;;;;;20.30;94256.00;;;;7399192;19;20151;-79
2022/06/04 08:14:13;;;;;;;5.78;5.28;;;;;20.30;94261.00;;;;7398046;19;20157;-78
2022/06/04 08:16:53;;;;;;;6.90;5.10;;;;;20.30;94260.00;;;;7400443;19;20151;-78
2022/06/04 08:19:32;;;;;;;8.20;5.18;;;;;20.50;94247.00;;;;7397522;19;20151;-80
2022/06/04 08:22:01;;;;;;;5.95;5.35;;;;;21.90;94234.00;;;;7396092;19;20235;-79
2022/06/04 08:24:35;;;;;;;6.63;5.85;;;;;22.60;94238.00;;;;7399106;19;20136;-77
2022/06/04 08:27:03;;;;;;;9.00;5.72;;;;;22.70;94236.00;;;;7397100;19;20189;-77
2022/06/04 08:29:34;;;;;;;6.32;5.30;;;;;22.90;94254.00;;;;7396441;19;20140;-77
2022/06/04 08:32:16;;;;;;;7.80;4.97;;;;;22.30;94264.00;;;;7397307;19;20144;-78
2022/06/04 08:34:50;;;;;;;5.82;5.32;;;;;21.90;94281.00;;;;7397811;19;20495;-76
2022/06/04 08:37:31;;;;;;;7.03;4.88;;;;;21.20;94279.00;;;;7396488;19;20456;-79
2022/06/04 08:40:00;;;;;;;9.23;5.43;;;;;21.00;94285.00;;;;7397269;19;20133;-80
2022/06/04 08:42:56;;;;;;;7.13;5.47;;;;;21.00;94286.00;;;;7398254;19;20519;-77
2022/06/04 08:45:24;;;;;;;5.70;5.18;;;;;20.40;94298.00;;;;7395605;19;20152;-79
2022/06/04 08:47:59;;;;;;;11.68;6.22;;;;;20.20;94301.00;;;;7396837;19;20146;-80
2022/06/04 08:50:34;;;;;;;8.05;5.35;;;;;20.10;94318.00;;;;7396924;19;20152;-77
2022/06/04 08:53:20;;;;;;;7.03;5.07;;;;;19.70;94318.00;;;;7395591;19;20124;-76
2022/06/04 08:59:02;;;;;;;6.38;5.78;;;;;19.30;94332.00;;;;7398899;19;20141;-80
2022/06/04 09:01:33;;;;;;;9.40;5.88;;;;;19.10;94339.00;;;;7398175;19;20147;-78
2022/06/04 09:04:25;;;;;;;9.52;6.30;;;;;18.80;94341.00;;;;7398572;19;20152;-76
2022/06/04 09:07:04;;;;;;;6.15;5.25;;;;;19.00;94335.00;;;;7398334;19;20149;-77
2022/06/04 09:10:06;;;;;;;9.43;6.05;;;;;19.10;94341.00;;;;7395776;19;20153;-77
2022/06/04 09:12:49;;;;;;;7.03;6.43;;;;;19.30;94334.00;;;;7395442;19;20147;-76
2022/06/04 09:15:29;;;;;;;6.43;5.78;;;;;19.50;94343.00;;;;7394824;19;20132;-76
2022/06/04 09:18:01;;;;;;;8.15;6.32;;;;;19.10;94343.00;;;;7393934;19;20148;-76
2022/06/04 09:20:45;;;;;;;8.25;6.00;;;;;19.40;94343.00;;;;7396463;19;20190;-76
2022/06/04 09:23:34;;;;;;;7.68;6.35;;;;;19.60;94341.00;;;;7393212;19;20156;-77
2022/06/04 09:26:14;;;;;;;9.20;6.07;;;;;19.60;94343.00;;;;7395746;19;20224;-78
2022/06/04 09:29:01;;;;;;;6.95;6.25;;;;;20.20;94341.00;;;;7394632;19;20143;-78
2022/06/04 09:31:43;;;;;;;7.40;6.18;;;;;19.60;94349.00;;;;7394285;19;20145;-76
2022/06/04 09:34:22;;;;;;;8.40;6.25;;;;;19.60;94348.00;;;;7393023;19;20483;-76
2022/06/04 09:37:13;;;;;;;11.15;7.15;;;;;19.30;94358.00;;;;7392445;19;20168;-77
2022/06/04 09:39:45;;;;;;;9.98;7.57;;;;;19.50;94350.00;;;;7392890;19;20473;-76
2022/06/04 09:42:22;;;;;;;7.63;6.93;;;;;19.50;94337.00;;;;7392998;19;20507;-76
2022/06/04 09:44:57;;;;;;;7.30;6.60;;;;;19.60;94350.00;;;;7392535;19;20169;-76
2022/06/04 09:47:36;;;;;;;8.65;7.75;;;;;19.20;94361.00;;;;7391806;19;20478;-76
2022/06/04 09:50:25;;;;;;;9.02;7.32;;;;;19.40;94355.00;;;;7392091;19;20141;-77
2022/06/04 09:53:20;;;;;;;11.57;7.85;;;;;19.30;94363.00;;;;7394004;19;20167;-75
2022/06/04 09:56:19;;;;;;;8.25;7.45;;;;;19.30;94364.00;;;;7391974;19;20145;-75
2022/06/04 09:58:54;;;;;;;10.80;8.10;;;;;19.50;94365.00;;;;7398893;19;20128;-76
2022/06/04 10:01:24;;;;;;;8.02;7.13;;;;;19.70;94364.00;;;;7398233;19;20126;-76
2022/06/04 10:04:02;;;;;;;9.43;7.60;;;;;19.90;94365.00;;;;7398479;19;20508;-77
2022/06/04 10:06:38;;;;;;;9.73;7.60;;;;;19.90;94372.00;;;;7399845;19;20157;-77
2022/06/04 10:12:21;;;;;;;9.60;7.55;;;;;20.10;94369.00;;;;7398462;19;20148;-77
2022/06/04 10:15:00;;;;;;;7.63;6.80;;;;;20.30;94380.00;;;;7401277;19;20128;-78
2022/06/04 10:17:37;;;;;;;7.80;7.10;;;;;20.50;94373.00;;;;7398459;19;20211;-76
2022/06/04 10:20:20;;;;;;;6.95;6.35;;;;;20.50;94365.00;;;;7397825;19;20687;-77
2022/06/04 10:22:57;;;;;;;7.68;6.97;;;;;21.00;94357.00;;;;7400095;19;20153;-76
2022/06/04 10:26:00;;;;;;;9.30;6.63;;;;;20.50;94359.00;;;;7396443;19;20145;-76
2022/06/04 10:29:03;;;;;;;6.93;6.32;;;;;20.80;94357.00;;;;7399136;19;20488;-76
2022/06/04 10:31:47;;;;;;;6.68;6.05;;;;;21.50;94372.00;;;;7394733;19;20155;-76
2022/06/04 10:34:31;;;;;;;6.82;6.22;;;;;21.70;94360.00;;;;7395934;19;20145;-77
2022/06/04 10:37:27;;;;;;;7.65;6.30;;;;;21.60;94361.00;;;;7392962;19;20639;-77
2022/06/04 10:40:16;;;;;;;7.95;7.15;;;;;21.90;94370.00;;;;7398376;19;20487;-77
2022/06/04 10:43:17;;;;;;;8.23;6.60;;;;;22.00;94369.00;;;;7397939;19;20182;-73
2022/06/04 10:46:32;;;;;;;8.27;6.38;;;;;21.90;94380.00;;;;7396867;19;20148;-75
2022/06/04 10:49:35;;;;;;;6.85;6.25;;;;;22.60;94369.00;;;;7399223;19;20141;-77
2022/06/04 10:52:27;;;;;;;6.28;5.72;;;;;22.40;94377.00;;;;7396139;19;20148;-76
2022/06/04 10:55:27;;;;;;;7.00;6.40;;;;;22.80;94375.00;;;;7398162;19;20606;-76
2022/06/04 10:58:29;;;;;;;10.88;6.75;;;;;22.30;94390.00;;;;7394311;19;20201;-74
2022/06/04 11:01:13;;;;;;;8.85;6.70;;;;;22.40;94383.00;;;;7398459;19;20514;-76
2022/06/04 11:04:08;;;;;;;11.75;6.93;;;;;22.20;94386.00;;;;7396377;19;20615;-75
2022/06/04 11:06:41;;;;;;;7.38;6.47;;;;;22.50;94380.00;;;;7394306;19;20501;-76
2022/06/04 11:09:35;;;;;;;7.80;7.10;;;;;22.70;94380.00;;;;7398157;19;20125;-76
2022/06/04 11:12:34;;;;;;;9.52;5.72;;;;;22.60;94378.00;;;;7397953;19;20608;-75
2022/06/04 11:15:18;;;;;;;7.45;6.75;;;;;22.40;94358.00;;;;7394510;19;20880;-76
2022/06/04 11:18:12;;;;;;;7.75;6.55;;;;;23.60;94356.00;;;;7395557;19;20600;-74
2022/06/04 11:21:10;;;;;;;7.43;6.72;;;;;24.00;94354.00;;;;7392752;19;20529;-74
2022/06/04 11:23:59;;;;;;;7.40;6.70;;;;;23.40;94361.00;;;;7395957;19;20129;-75
2022/06/04 11:26:37;;;;;;;7.57;6.63;;;;;23.70;94355.00;;;;7397610;19;20132;-75
2022/06/04 11:29:06;;;;;;;10.18;6.10;;;;;23.70;94358.00;;;;7397723;19;20158;-75
2022/06/04 11:32:21;;;;;;;7.25;5.55;;;;;24.40;94346.00;;;;7395201;19;20125;-76
2022/06/04 11:35:04;;;;;;;5.75;3.85;;;;;25.60;94342.00;;;;7396736;19;20124;-74
2022/06/04 11:38:15;;;;;;;5.15;4.35;;;;;25.80;94357.00;;;;7396370;19;20128;-75
2022/06/04 11:40:53;;;;;;;7.38;5.65;;;;;25.60;94357.00;;;;7396306;19;20148;-75
2022/06/04 11:43:36;;;;;;;7.70;5.28;;;;;25.10;94364.00;;;;7396375;19;20140;-75
2022/06/04 11:46:10;;;;;;;6.28;4.18;;;;;24.80;94379.00;;;;7392429;19;20215;-74
2022/06/04 11:49:29;;;;;;;4.13;3.72;;;;;25.00;94374.00;;;;7391707;19;20163;-76
2022/06/04 11:52:29;;;;;;;7.47;3.97;;;;;24.50;94369.00;;;;7388394;19;20148;-75
2022/06/04 11:55:46;;;;;;;7.00;3.67;;;;;23.90;94368.00;;;;7391815;19;20616;-75
2022/06/04 11:58:27;;;;;;;6.00;3.72;;;;;24.40;94361.00;;;;7385884;19;20657;-74
2022/06/04 12:01:14;;;;;;;5.88;4.13;;;;;24.20;94371.00;;;;7389535;19;20916;-77
2022/06/04 12:03:54;;;;;;;4.53;3.58;;;;;24.30;94377.00;;;;7389529;19;20137;-76
2022/06/04 12:06:42;;;;;;;4.40;4.00;;;;;24.70;94375.00;;;;7390452;19;20147;-76
2022/06/04 12:09:17;;;;;;;5.10;3.45;;;;;24.80;94376.00;;;;7388887;19;20133;-76
2022/06/04 12:12:04;;;;;;;3.80;3.30;;;;;25.10;94381.00;;;;7388467;19;20159;-75
2022/06/04 12:14:55;;;;;;;6.00;4.53;;;;;25.00;94380.00;;;;7387189;19;20129;-76
2022/06/04 12:17:49;;;;;;;5.32;4.38;;;;;25.00;94378.00;;;;7391150;19;20632;-76
2022/06/04 12:26:21;;;;;;;8.20;4.72;;;;;25.80;94370.00;;;;7395913;19;20129;-76
2022/06/04 12:28:57;;;;;;;6.03;3.97;;;;;26.40;94360.00;;;;7396797;19;20132;-75
2022/06/04 12:31:37;;;;;;;6.43;3.80;;;;;26.70;94364.00;;;;7395486;19;20140;-76
2022/06/04 12:34:37;;;;;;;4.40;3.95;;;;;25.60;94369.00;;;;7395005;19;20149;-76
2022/06/04 12:37:35;;;;;;;4.07;3.40;;;;;24.10;94371.00;;;;7396936;19;20664;-75
2022/06/04 12:40:24;;;;;;;8.02;4.03;;;;;24.90;94354.00;;;;7396316;19;20137;-75
2022/06/04 12:43:00;;;;;;;4.05;3.63;;;;;26.40;94355.00;;;;7396984;19;20144;-76
2022/06/04 12:45:41;;;;;;;6.32;3.83;;;;;25.40;94373.00;;;;7393784;19;20138;-75
2022/06/04 12:48:27;;;;;;;4.95;4.43;;;;;25.10;94383.00;;;;7393968;19;20177;-76
2022/06/04 12:51:05;;;;;;;5.05;4.30;;;;;24.80;94390.00;;;;7396146;19;20152;-76
2022/06/04 12:53:45;;;;;;;6.05;4.47;;;;;24.40;94392.00;;;;7392952;19;20145;-76
2022/06/04 12:56:35;;;;;;;4.28;3.90;;;;;24.00;94371.00;;;;7393527;19;20556;-78
2022/06/04 12:59:06;;;;;;;9.13;4.35;;;;;24.20;94386.00;;;;7396626;19;20174;-76
2022/06/04 13:01:40;;;;;;;5.90;4.35;;;;;23.90;94387.00;;;;7396126;19;20173;-77
2022/06/04 13:04:11;;;;;;;4.50;3.97;;;;;23.50;94379.00;;;;7396447;19;20570;-77
2022/06/04 13:06:49;;;;;;;5.00;3.80;;;;;24.50;94364.00;;;;7395871;19;20184;-75
2022/06/04 13:10:00;;;;;;;3.58;3.22;;;;;24.70;94365.00;;;;7395887;19;20136;-77
2022/06/04 13:12:44;;;;;;;5.57;5.07;;;;;25.40;94381.00;;;;7396352;19;20149;-76
2022/06/04 13:15:35;;;;;;;5.60;5.10;;;;;25.30;94375.00;;;;7397783;19;20121;-76
2022/06/04 13:18:03;;;;;;;8.73;5.18;;;;;24.80;94383.00;;;;7395212;19;20140;-77
2022/06/04 13:20:45;;;;;;;6.30;5.30;;;;;24.00;94393.00;;;;7396218;19;20175;-76
2022/06/04 13:23:28;;;;;;;6.15;4.70;;;;;24.20;94368.00;;;;7394929;19;20153;-76
2022/06/04 13:26:31;;;;;;;7.13;4.35;;;;;24.60;94379.00;;;;7396171;19;20140;-76
2022/06/04 13:29:01;;;;;;;6.88;3.90;;;;;25.10;94373.00;;;;7396884;19;20470;-76